sensor_id;sensor_type;location;lat;lon;timestamp;pressure;altitude;pressure_sealevel;temperature;humidity
11605;BME280;5858;43.076;25.626;2022-10-16T00:01:26;100015.28;;;8.81;95.18
11605;BME280;5858;43.076;25.626;2022-10-16T00:03:54;100075.53;;;8.84;95.64
11605;BME280;5858;43.076;25.626;2022-10-16T00:06:22;100029.09;;;8.41;97.03
11605;BME280;5858;43.076;25.626;2022-10-16T00:08:50;100071.50;;;8.80;96.97
11605;BME280;5858;43.076;25.626;2022-10-16T00:11:19;100066.44;;;8.95;96.55
11605;BME280;5858;43.076;25.626;2022-10-16T00:13:48;100037.41;;;8.74;96.48
11605;BME280;5858;43.076;25.626;2022-10-16T00:16:18;99983.75;;;8.41;96.44
11605;BME280;5858;43.076;25.626;2022-10-16T00:18:46;100023.56;;;8.52;97.25
11605;BME280;5858;43.076;25.626;2022-10-16T00:21:14;100061.81;;;8.79;97.39
11605;BME280;5858;43.076;25.626;2022-10-16T00:23:42;100092.13;;;8.96;97.10
11605;BME280;5858;43.076;25.626;2022-10-16T00:26:13;100038.66;;;8.62;96.89
11605;BME280;5858;43.076;25.626;2022-10-16T00:28:40;100115.25;;;8.87;96.76
11605;BME280;5858;43.076;25.626;2022-10-16T00:31:11;100070.28;;;8.57;96.87
11605;BME280;5858;43.076;25.626;2022-10-16T00:33:39;100011.31;;;8.32;97.27
11605;BME280;5858;43.076;25.626;2022-10-16T00:36:07;100044.19;;;8.50;97.37
11605;BME280;5858;43.076;25.626;2022-10-16T00:38:36;100091.00;;;8.63;97.01
11605;BME280;5858;43.076;25.626;2022-10-16T00:41:04;100101.75;;;8.71;96.93
11605;BME280;5858;43.076;25.626;2022-10-16T00:43:38;100103.66;;;8.78;96.92
11605;BME280;5858;43.076;25.626;2022-10-16T00:46:12;100120.75;;;8.68;96.76
11605;BME280;5858;43.076;25.626;2022-10-16T00:48:46;100130.81;;;8.74;97.47
11605;BME280;5858;43.076;25.626;2022-10-16T00:51:19;100036.47;;;8.02;97.21
11605;BME280;5858;43.076;25.626;2022-10-16T00:53:48;100016.97;;;8.02;96.81
11605;BME280;5858;43.076;25.626;2022-10-16T00:56:16;100102.53;;;8.36;96.90
11605;BME280;5858;43.076;25.626;2022-10-16T00:58:45;100057.84;;;8.20;96.40
11605;BME280;5858;43.076;25.626;2022-10-16T01:01:12;100011.03;;;7.90;96.19
11605;BME280;5858;43.076;25.626;2022-10-16T01:03:41;100080.56;;;8.24;97.60
11605;BME280;5858;43.076;25.626;2022-10-16T01:06:19;100105.69;;;8.21;97.77
11605;BME280;5858;43.076;25.626;2022-10-16T01:09:02;100070.13;;;8.03;98.06
11605;BME280;5858;43.076;25.626;2022-10-16T01:11:38;100020.94;;;7.70;98.42
11605;BME280;5858;43.076;25.626;2022-10-16T01:14:15;100095.94;;;8.30;98.31
11605;BME280;5858;43.076;25.626;2022-10-16T01:16:49;100096.06;;;8.11;97.99
11605;BME280;5858;43.076;25.626;2022-10-16T01:19:29;100138.38;;;8.51;98.01
11605;BME280;5858;43.076;25.626;2022-10-16T01:22:03;100079.47;;;7.89;98.07
11605;BME280;5858;43.076;25.626;2022-10-16T01:24:33;100094.72;;;7.97;99.19
11605;BME280;5858;43.076;25.626;2022-10-16T01:27:20;100051.94;;;7.71;99.32
11605;BME280;5858;43.076;25.626;2022-10-16T01:29:52;99987.34;;;7.32;98.45
11605;BME280;5858;43.076;25.626;2022-10-16T01:32:24;100118.00;;;7.95;98.69
11605;BME280;5858;43.076;25.626;2022-10-16T01:34:59;100063.53;;;7.80;98.00
11605;BME280;5858;43.076;25.626;2022-10-16T01:37:33;100068.38;;;7.94;97.46
11605;BME280;5858;43.076;25.626;2022-10-16T01:40:05;100082.63;;;8.03;97.42
11605;BME280;5858;43.076;25.626;2022-10-16T01:42:39;100119.63;;;8.15;97.11
11605;BME280;5858;43.076;25.626;2022-10-16T01:45:09;100138.97;;;8.17;96.74
11605;BME280;5858;43.076;25.626;2022-10-16T01:47:39;100051.16;;;7.51;97.74
11605;BME280;5858;43.076;25.626;2022-10-16T01:50:07;100129.50;;;8.05;97.87
11605;BME280;5858;43.076;25.626;2022-10-16T01:52:37;100132.31;;;7.94;98.20
11605;BME280;5858;43.076;25.626;2022-10-16T01:55:06;100082.63;;;7.75;97.90
11605;BME280;5858;43.076;25.626;2022-10-16T01:57:38;100140.69;;;8.09;98.30
11605;BME280;5858;43.076;25.626;2022-10-16T02:00:08;100164.41;;;8.39;96.91
11605;BME280;5858;43.076;25.626;2022-10-16T02:02:38;100145.69;;;8.21;96.70
11605;BME280;5858;43.076;25.626;2022-10-16T02:05:12;100148.00;;;7.97;97.83
11605;BME280;5858;43.076;25.626;2022-10-16T02:07:42;100163.94;;;8.16;98.62
11605;BME280;5858;43.076;25.626;2022-10-16T02:10:09;100185.97;;;8.18;97.61
11605;BME280;5858;43.076;25.626;2022-10-16T02:12:40;100041.63;;;7.49;97.60
11605;BME280;5858;43.076;25.626;2022-10-16T02:15:09;99981.84;;;6.87;98.43
11605;BME280;5858;43.076;25.626;2022-10-16T02:17:37;100134.03;;;7.85;98.16
11605;BME280;5858;43.076;25.626;2022-10-16T02:20:05;100105.69;;;7.47;97.83
11605;BME280;5858;43.076;25.626;2022-10-16T02:22:34;100171.66;;;7.73;98.27
11605;BME280;5858;43.076;25.626;2022-10-16T02:25:06;100107.41;;;7.29;99.07
11605;BME280;5858;43.076;25.626;2022-10-16T02:27:41;100102.06;;;7.39;97.82
11605;BME280;5858;43.076;25.626;2022-10-16T02:30:13;100094.78;;;7.31;96.75
11605;BME280;5858;43.076;25.626;2022-10-16T02:32:42;100157.91;;;7.77;95.98
11605;BME280;5858;43.076;25.626;2022-10-16T02:35:12;100174.03;;;7.76;96.68
11605;BME280;5858;43.076;25.626;2022-10-16T02:37:40;100057.59;;;6.92;97.68
11605;BME280;5858;43.076;25.626;2022-10-16T02:40:09;100182.75;;;7.68;98.04
11605;BME280;5858;43.076;25.626;2022-10-16T02:42:39;100121.28;;;7.23;98.32
11605;BME280;5858;43.076;25.626;2022-10-16T02:45:09;100118.34;;;7.26;98.07
11605;BME280;5858;43.076;25.626;2022-10-16T02:47:36;100180.38;;;7.55;98.50
11605;BME280;5858;43.076;25.626;2022-10-16T02:50:04;100148.03;;;7.41;98.20
11605;BME280;5858;43.076;25.626;2022-10-16T02:52:31;100151.34;;;7.52;98.19
11605;BME280;5858;43.076;25.626;2022-10-16T02:54:58;100078.72;;;6.94;97.96
11605;BME280;5858;43.076;25.626;2022-10-16T02:57:25;100152.09;;;7.35;98.40
11605;BME280;5858;43.076;25.626;2022-10-16T02:59:53;100046.25;;;6.52;99.46
11605;BME280;5858;43.076;25.626;2022-10-16T03:02:20;100207.28;;;7.62;99.35
11605;BME280;5858;43.076;25.626;2022-10-16T03:04:47;100218.94;;;7.61;98.35
11605;BME280;5858;43.076;25.626;2022-10-16T03:07:14;100189.06;;;7.48;98.42
11605;BME280;5858;43.076;25.626;2022-10-16T03:09:41;100177.69;;;7.55;98.63
11605;BME280;5858;43.076;25.626;2022-10-16T03:12:08;100161.22;;;7.23;98.48
11605;BME280;5858;43.076;25.626;2022-10-16T03:14:37;100160.66;;;7.19;98.75
11605;BME280;5858;43.076;25.626;2022-10-16T03:17:06;100127.88;;;7.19;98.56
11605;BME280;5858;43.076;25.626;2022-10-16T03:19:33;100092.19;;;6.63;98.41
11605;BME280;5858;43.076;25.626;2022-10-16T03:22:01;100173.69;;;7.13;98.95
11605;BME280;5858;43.076;25.626;2022-10-16T03:24:28;100060.38;;;6.43;98.55
11605;BME280;5858;43.076;25.626;2022-10-16T03:26:57;100120.19;;;6.77;98.01
11605;BME280;5858;43.076;25.626;2022-10-16T03:29:27;100137.69;;;6.70;98.04
11605;BME280;5858;43.076;25.626;2022-10-16T03:31:54;100067.78;;;6.29;98.93
11605;BME280;5858;43.076;25.626;2022-10-16T03:34:23;100135.72;;;6.72;98.73
11605;BME280;5858;43.076;25.626;2022-10-16T03:36:50;100158.81;;;6.81;98.87
11605;BME280;5858;43.076;25.626;2022-10-16T03:39:17;100139.22;;;6.63;99.10
11605;BME280;5858;43.076;25.626;2022-10-16T03:41:44;100146.22;;;6.83;99.47
11605;BME280;5858;43.076;25.626;2022-10-16T03:44:11;100152.09;;;6.97;99.22
11605;BME280;5858;43.076;25.626;2022-10-16T03:46:38;100190.34;;;7.24;99.07
11605;BME280;5858;43.076;25.626;2022-10-16T03:49:06;100157.56;;;7.05;99.22
11605;BME280;5858;43.076;25.626;2022-10-16T03:51:34;100052.63;;;6.11;98.91
11605;BME280;5858;43.076;25.626;2022-10-16T03:54:01;100159.19;;;6.57;100.00
11605;BME280;5858;43.076;25.626;2022-10-16T03:56:28;100206.28;;;6.86;99.70
11605;BME280;5858;43.076;25.626;2022-10-16T03:58:54;100188.06;;;6.72;99.88
11605;BME280;5858;43.076;25.626;2022-10-16T04:01:21;100223.50;;;6.82;100.00
11605;BME280;5858;43.076;25.626;2022-10-16T04:03:48;100224.34;;;6.82;100.00
11605;BME280;5858;43.076;25.626;2022-10-16T04:06:15;100163.75;;;6.36;100.00
11605;BME280;5858;43.076;25.626;2022-10-16T04:08:44;100130.59;;;5.90;100.00
11605;BME280;5858;43.076;25.626;2022-10-16T04:11:11;100110.94;;;5.82;100.00
11605;BME280;5858;43.076;25.626;2022-10-16T04:13:38;100191.16;;;6.27;100.00
11605;BME280;5858;43.076;25.626;2022-10-16T04:16:05;100139.94;;;6.15;100.00
11605;BME280;5858;43.076;25.626;2022-10-16T04:18:32;100192.88;;;6.38;99.87
11605;BME280;5858;43.076;25.626;2022-10-16T04:21:02;100213.59;;;6.44;99.52
11605;BME280;5858;43.076;25.626;2022-10-16T04:23:29;100225.44;;;6.70;98.61
11605;BME280;5858;43.076;25.626;2022-10-16T04:26:00;100196.63;;;6.35;98.62
11605;BME280;5858;43.076;25.626;2022-10-16T04:28:27;100049.56;;;5.75;98.85
11605;BME280;5858;43.076;25.626;2022-10-16T04:30:55;100185.47;;;6.51;98.44
11605;BME280;5858;43.076;25.626;2022-10-16T04:33:22;100211.31;;;6.79;98.18
11605;BME280;5858;43.076;25.626;2022-10-16T04:35:48;100211.31;;;6.89;96.98
11605;BME280;5858;43.076;25.626;2022-10-16T04:38:22;100187.56;;;6.47;97.56
11605;BME280;5858;43.076;25.626;2022-10-16T04:40:49;100208.78;;;6.68;97.62
11605;BME280;5858;43.076;25.626;2022-10-16T04:43:17;100187.34;;;6.20;97.46
11605;BME280;5858;43.076;25.626;2022-10-16T04:45:44;100145.16;;;5.75;98.92
11605;BME280;5858;43.076;25.626;2022-10-16T04:48:11;100235.78;;;6.33;99.79
11605;BME280;5858;43.076;25.626;2022-10-16T04:50:38;100156.03;;;5.93;100.00
11605;BME280;5858;43.076;25.626;2022-10-16T04:53:05;100267.34;;;6.57;100.00
11605;BME280;5858;43.076;25.626;2022-10-16T04:55:35;100200.56;;;6.10;100.00
11605;BME280;5858;43.076;25.626;2022-10-16T04:58:03;100279.41;;;6.61;100.00
11605;BME280;5858;43.076;25.626;2022-10-16T05:00:32;100266.00;;;6.62;100.00
11605;BME280;5858;43.076;25.626;2022-10-16T05:02:59;100181.31;;;6.18;99.88
11605;BME280;5858;43.076;25.626;2022-10-16T05:05:26;100135.56;;;6.14;99.46
11605;BME280;5858;43.076;25.626;2022-10-16T05:07:53;100142.47;;;5.96;99.31
11605;BME280;5858;43.076;25.626;2022-10-16T05:10:23;100244.47;;;6.66;98.66
11605;BME280;5858;43.076;25.626;2022-10-16T05:12:49;100190.47;;;6.35;99.11
11605;BME280;5858;43.076;25.626;2022-10-16T05:15:17;100175.75;;;6.21;98.60
11605;BME280;5858;43.076;25.626;2022-10-16T05:17:45;100097.72;;;5.91;98.52
11605;BME280;5858;43.076;25.626;2022-10-16T05:20:12;100262.59;;;7.01;98.38
11605;BME280;5858;43.076;25.626;2022-10-16T05:22:39;100262.22;;;7.34;96.99
11605;BME280;5858;43.076;25.626;2022-10-16T05:25:06;100263.78;;;7.27;95.94
11605;BME280;5858;43.076;25.626;2022-10-16T05:27:33;100180.25;;;6.99;95.17
11605;BME280;5858;43.076;25.626;2022-10-16T05:30:00;100263.63;;;7.67;94.64
11605;BME280;5858;43.076;25.626;2022-10-16T05:32:29;100290.50;;;8.12;93.29
11605;BME280;5858;43.076;25.626;2022-10-16T05:34:57;100278.53;;;8.36;91.13
11605;BME280;5858;43.076;25.626;2022-10-16T05:37:35;100250.78;;;8.66;89.01
11605;BME280;5858;43.076;25.626;2022-10-16T05:40:03;100234.97;;;8.82;86.81
11605;BME280;5858;43.076;25.626;2022-10-16T05:42:30;100168.69;;;8.60;84.63
11605;BME280;5858;43.076;25.626;2022-10-16T05:44:57;100305.63;;;9.68;83.79
11605;BME280;5858;43.076;25.626;2022-10-16T05:47:24;100212.06;;;9.25;84.12
11605;BME280;5858;43.076;25.626;2022-10-16T05:49:51;100252.06;;;9.52;83.30
11605;BME280;5858;43.076;25.626;2022-10-16T05:52:20;100169.25;;;8.99;83.11
11605;BME280;5858;43.076;25.626;2022-10-16T05:54:46;100219.53;;;9.39;83.56
11605;BME280;5858;43.076;25.626;2022-10-16T05:57:13;100326.38;;;10.10;82.48
11605;BME280;5858;43.076;25.626;2022-10-16T05:59:41;100295.47;;;9.72;83.33
11605;BME280;5858;43.076;25.626;2022-10-16T06:02:11;100311.19;;;9.75;83.36
11605;BME280;5858;43.076;25.626;2022-10-16T06:04:39;100312.03;;;9.40;85.06
11605;BME280;5858;43.076;25.626;2022-10-16T06:07:06;100316.97;;;9.35;84.81
11605;BME280;5858;43.076;25.626;2022-10-16T06:09:37;100252.56;;;8.75;85.92
11605;BME280;5858;43.076;25.626;2022-10-16T06:12:04;100230.09;;;8.95;86.16
11605;BME280;5858;43.076;25.626;2022-10-16T06:14:31;100230.31;;;8.84;87.04
11605;BME280;5858;43.076;25.626;2022-10-16T06:16:59;100302.38;;;9.11;87.51
11605;BME280;5858;43.076;25.626;2022-10-16T06:19:25;100229.16;;;8.87;87.39
11605;BME280;5858;43.076;25.626;2022-10-16T06:21:52;100292.94;;;9.35;87.49
11605;BME280;5858;43.076;25.626;2022-10-16T06:24:19;100354.41;;;9.88;86.11
11605;BME280;5858;43.076;25.626;2022-10-16T06:26:50;100290.22;;;9.62;86.17
11605;BME280;5858;43.076;25.626;2022-10-16T06:29:17;100327.53;;;10.07;85.11
11605;BME280;5858;43.076;25.626;2022-10-16T06:31:44;100325.53;;;10.09;85.54
11605;BME280;5858;43.076;25.626;2022-10-16T06:34:11;100334.41;;;10.10;85.73
11605;BME280;5858;43.076;25.626;2022-10-16T06:36:38;100300.19;;;9.96;85.87
11605;BME280;5858;43.076;25.626;2022-10-16T06:39:05;100334.63;;;10.17;85.98
11605;BME280;5858;43.076;25.626;2022-10-16T06:41:33;100272.63;;;9.77;85.74
11605;BME280;5858;43.076;25.626;2022-10-16T06:44:05;100177.47;;;9.41;85.71
11605;BME280;5858;43.076;25.626;2022-10-16T06:46:32;100372.44;;;10.65;85.12
11605;BME280;5858;43.076;25.626;2022-10-16T06:48:59;100357.91;;;10.68;84.54
11605;BME280;5858;43.076;25.626;2022-10-16T06:51:26;100321.81;;;10.46;84.46
11605;BME280;5858;43.076;25.626;2022-10-16T06:53:54;100313.44;;;10.41;84.62
11605;BME280;5858;43.076;25.626;2022-10-16T06:56:23;100380.72;;;10.80;84.28
11605;BME280;5858;43.076;25.626;2022-10-16T06:58:50;100282.63;;;10.37;84.20
11605;BME280;5858;43.076;25.626;2022-10-16T07:01:20;100307.50;;;10.55;84.86
11605;BME280;5858;43.076;25.626;2022-10-16T07:03:51;100374.13;;;10.92;85.23
11605;BME280;5858;43.076;25.626;2022-10-16T07:06:21;100365.63;;;10.97;85.62
11605;BME280;5858;43.076;25.626;2022-10-16T07:08:48;100383.84;;;10.93;85.37
11605;BME280;5858;43.076;25.626;2022-10-16T07:11:16;100283.03;;;10.24;85.38
11605;BME280;5858;43.076;25.626;2022-10-16T07:13:47;100354.41;;;10.67;86.48
11605;BME280;5858;43.076;25.626;2022-10-16T07:16:16;100337.38;;;10.77;85.62
11605;BME280;5858;43.076;25.626;2022-10-16T07:18:45;100395.84;;;11.23;85.39
11605;BME280;5858;43.076;25.626;2022-10-16T07:21:16;100388.06;;;11.38;85.17
11605;BME280;5858;43.076;25.626;2022-10-16T07:23:43;100344.25;;;11.13;84.71
11605;BME280;5858;43.076;25.626;2022-10-16T07:26:11;100218.66;;;10.52;84.08
11605;BME280;5858;43.076;25.626;2022-10-16T07:28:38;100381.88;;;11.46;84.12
11605;BME280;5858;43.076;25.626;2022-10-16T07:31:07;100384.75;;;11.52;84.33
11605;BME280;5858;43.076;25.626;2022-10-16T07:33:38;100338.16;;;11.37;83.87
11605;BME280;5858;43.076;25.626;2022-10-16T07:36:07;100219.75;;;10.75;83.99
11605;BME280;5858;43.076;25.626;2022-10-16T07:38:34;100327.28;;;11.47;84.48
11605;BME280;5858;43.076;25.626;2022-10-16T07:41:03;100353.13;;;11.64;84.37
11605;BME280;5858;43.076;25.626;2022-10-16T07:43:31;100230.69;;;10.90;84.12
11605;BME280;5858;43.076;25.626;2022-10-16T07:45:58;100348.44;;;11.74;84.03
11605;BME280;5858;43.076;25.626;2022-10-16T07:48:29;100320.78;;;11.65;83.50
11605;BME280;5858;43.076;25.626;2022-10-16T07:50:57;100343.97;;;11.83;83.71
11605;BME280;5858;43.076;25.626;2022-10-16T07:53:27;100347.25;;;11.77;83.87
11605;BME280;5858;43.076;25.626;2022-10-16T07:55:57;100293.63;;;11.52;83.59
11605;BME280;5858;43.076;25.626;2022-10-16T07:58:27;100320.44;;;11.77;83.38
11605;BME280;5858;43.076;25.626;2022-10-16T08:00:54;100366.78;;;12.27;83.04
11605;BME280;5858;43.076;25.626;2022-10-16T08:03:21;100294.69;;;11.84;82.58
11605;BME280;5858;43.076;25.626;2022-10-16T08:05:49;100359.56;;;12.28;82.52
11605;BME280;5858;43.076;25.626;2022-10-16T08:08:17;100328.88;;;12.39;82.33
11605;BME280;5858;43.076;25.626;2022-10-16T08:10:49;100213.88;;;11.71;81.72
11605;BME280;5858;43.076;25.626;2022-10-16T08:13:16;100333.03;;;12.57;80.82
11605;BME280;5858;43.076;25.626;2022-10-16T08:15:44;100369.69;;;12.98;80.75
11605;BME280;5858;43.076;25.626;2022-10-16T08:18:12;100331.78;;;12.84;80.33
11605;BME280;5858;43.076;25.626;2022-10-16T08:20:40;100368.78;;;13.30;80.47
11605;BME280;5858;43.076;25.626;2022-10-16T08:23:07;100329.28;;;13.30;78.21
11605;BME280;5858;43.076;25.626;2022-10-16T08:25:35;100381.47;;;13.75;76.14
11605;BME280;5858;43.076;25.626;2022-10-16T08:28:04;100353.59;;;13.68;77.03
11605;BME280;5858;43.076;25.626;2022-10-16T08:30:31;100360.44;;;13.78;76.22
11605;BME280;5858;43.076;25.626;2022-10-16T08:32:58;100224.09;;;13.02;73.23
11605;BME280;5858;43.076;25.626;2022-10-16T08:35:25;100339.88;;;13.85;73.17
11605;BME280;5858;43.076;25.626;2022-10-16T08:37:53;100231.16;;;13.34;72.37
11605;BME280;5858;43.076;25.626;2022-10-16T08:40:23;100356.00;;;14.31;73.19
11605;BME280;5858;43.076;25.626;2022-10-16T08:49:19;100287.19;;;14.29;69.90
11605;BME280;5858;43.076;25.626;2022-10-16T08:51:47;100370.41;;;14.91;67.60
11605;BME280;5858;43.076;25.626;2022-10-16T08:54:26;100369.78;;;14.89;68.23
11605;BME280;5858;43.076;25.626;2022-10-16T08:56:56;100344.78;;;14.80;67.54
11605;BME280;5858;43.076;25.626;2022-10-16T08:59:23;100345.25;;;14.69;66.63
11605;BME280;5858;43.076;25.626;2022-10-16T09:01:51;100374.78;;;14.92;65.22
11605;BME280;5858;43.076;25.626;2022-10-16T09:04:53;100338.00;;;14.84;65.04
11605;BME280;5858;43.076;25.626;2022-10-16T09:07:26;100323.13;;;14.73;63.96
11605;BME280;5858;43.076;25.626;2022-10-16T09:10:12;100307.97;;;14.72;63.46
11605;BME280;5858;43.076;25.626;2022-10-16T09:12:45;100350.91;;;15.03;63.51
11605;BME280;5858;43.076;25.626;2022-10-16T09:15:19;100326.84;;;14.72;61.28
11605;BME280;5858;43.076;25.626;2022-10-16T09:17:56;100359.91;;;15.25;61.86
11605;BME280;5858;43.076;25.626;2022-10-16T09:20:36;100330.06;;;15.12;59.17
11605;BME280;5858;43.076;25.626;2022-10-16T09:23:19;100226.59;;;14.47;58.90
11605;BME280;5858;43.076;25.626;2022-10-16T09:25:49;100292.91;;;14.93;59.07
11605;BME280;5858;43.076;25.626;2022-10-16T09:28:17;100363.19;;;15.21;57.82
11605;BME280;5858;43.076;25.626;2022-10-16T09:30:45;100358.22;;;15.39;57.09
11605;BME280;5858;43.076;25.626;2022-10-16T09:33:14;100356.72;;;15.36;56.89
11605;BME280;5858;43.076;25.626;2022-10-16T09:35:51;100321.31;;;15.10;56.36
11605;BME280;5858;43.076;25.626;2022-10-16T09:38:29;100332.38;;;15.30;56.46
11605;BME280;5858;43.076;25.626;2022-10-16T09:40:57;100384.47;;;15.81;54.41
11605;BME280;5858;43.076;25.626;2022-10-16T09:43:27;100250.41;;;15.09;56.51
11605;BME280;5858;43.076;25.626;2022-10-16T09:46:00;100299.00;;;15.31;53.01
11605;BME280;5858;43.076;25.626;2022-10-16T09:48:30;100222.03;;;14.77;52.08
11605;BME280;5858;43.076;25.626;2022-10-16T09:53:58;100316.56;;;15.12;52.31
11605;BME280;5858;43.076;25.626;2022-10-16T09:56:27;100357.16;;;15.55;53.08
11605;BME280;5858;43.076;25.626;2022-10-16T09:58:56;100365.44;;;15.53;52.60
11605;BME280;5858;43.076;25.626;2022-10-16T10:01:28;100381.97;;;15.80;52.29
11605;BME280;5858;43.076;25.626;2022-10-16T10:03:57;100292.31;;;15.27;52.64
11605;BME280;5858;43.076;25.626;2022-10-16T10:06:32;100228.09;;;15.16;52.32
11605;BME280;5858;43.076;25.626;2022-10-16T10:09:06;100246.00;;;15.23;51.95
11605;BME280;5858;43.076;25.626;2022-10-16T10:11:48;100246.28;;;15.28;52.19
11605;BME280;5858;43.076;25.626;2022-10-16T10:14:20;100369.06;;;16.18;52.45
11605;BME280;5858;43.076;25.626;2022-10-16T10:16:48;100310.72;;;15.74;52.68
11605;BME280;5858;43.076;25.626;2022-10-16T10:19:16;100340.97;;;16.12;53.14
11605;BME280;5858;43.076;25.626;2022-10-16T10:21:46;100301.06;;;15.86;52.62
11605;BME280;5858;43.076;25.626;2022-10-16T10:24:19;100278.66;;;15.64;53.00
11605;BME280;5858;43.076;25.626;2022-10-16T10:26:51;100321.28;;;15.97;52.66
11605;BME280;5858;43.076;25.626;2022-10-16T10:29:34;100289.59;;;16.05;53.02
11605;BME280;5858;43.076;25.626;2022-10-16T10:32:14;100331.81;;;16.34;52.38
11605;BME280;5858;43.076;25.626;2022-10-16T10:34:55;100291.03;;;15.80;51.23
11605;BME280;5858;43.076;25.626;2022-10-16T10:37:38;100302.59;;;15.74;51.61
11605;BME280;5858;43.076;25.626;2022-10-16T10:40:16;100358.19;;;16.32;50.42
11605;BME280;5858;43.076;25.626;2022-10-16T10:43:01;100191.63;;;15.41;49.52
11605;BME280;5858;43.076;25.626;2022-10-16T10:45:41;100263.28;;;15.86;50.41
11605;BME280;5858;43.076;25.626;2022-10-16T10:48:23;100286.66;;;16.00;51.30
11605;BME280;5858;43.076;25.626;2022-10-16T10:51:06;100302.53;;;16.38;52.00
11605;BME280;5858;43.076;25.626;2022-10-16T10:53:42;100239.31;;;16.04;50.10
11605;BME280;5858;43.076;25.626;2022-10-16T10:56:24;100278.66;;;16.42;51.94
11605;BME280;5858;43.076;25.626;2022-10-16T10:59:09;100290.34;;;16.49;50.38
11605;BME280;5858;43.076;25.626;2022-10-16T11:01:47;100220.38;;;16.26;50.07
11605;BME280;5858;43.076;25.626;2022-10-16T11:04:47;100175.56;;;16.03;49.99
11605;BME280;5858;43.076;25.626;2022-10-16T11:07:21;100247.63;;;16.31;50.76
11605;BME280;5858;43.076;25.626;2022-10-16T11:09:57;100305.13;;;16.81;50.40
11605;BME280;5858;43.076;25.626;2022-10-16T11:12:31;100290.72;;;16.67;50.41
11605;BME280;5858;43.076;25.626;2022-10-16T11:15:04;100242.94;;;16.46;50.86
11605;BME280;5858;43.076;25.626;2022-10-16T11:17:38;100219.69;;;16.52;50.91
11605;BME280;5858;43.076;25.626;2022-10-16T11:20:13;100279.44;;;16.98;51.69
11605;BME280;5858;43.076;25.626;2022-10-16T11:22:47;100322.88;;;17.38;51.82
11605;BME280;5858;43.076;25.626;2022-10-16T11:25:19;100282.28;;;17.31;50.79
11605;BME280;5858;43.076;25.626;2022-10-16T11:27:52;100218.47;;;16.89;49.11
11605;BME280;5858;43.076;25.626;2022-10-16T11:30:23;100266.59;;;17.07;49.98
11605;BME280;5858;43.076;25.626;2022-10-16T11:33:10;100240.91;;;16.83;49.97
11605;BME280;5858;43.076;25.626;2022-10-16T11:35:46;100316.97;;;17.14;50.48
11605;BME280;5858;43.076;25.626;2022-10-16T11:38:20;100288.22;;;17.07;50.79
11605;BME280;5858;43.076;25.626;2022-10-16T11:40:53;100165.50;;;16.60;51.58
11605;BME280;5858;43.076;25.626;2022-10-16T11:43:35;100310.69;;;17.61;49.00
11605;BME280;5858;43.076;25.626;2022-10-16T11:46:08;100188.66;;;16.69;49.85
11605;BME280;5858;43.076;25.626;2022-10-16T11:48:48;100311.53;;;17.62;50.14
11605;BME280;5858;43.076;25.626;2022-10-16T11:51:26;100284.66;;;17.60;50.36
11605;BME280;5858;43.076;25.626;2022-10-16T11:54:08;100310.38;;;17.98;50.46
11605;BME280;5858;43.076;25.626;2022-10-16T11:57:07;100276.16;;;17.77;48.06
11605;BME280;5858;43.076;25.626;2022-10-16T11:59:43;100267.63;;;17.67;48.88
11605;BME280;5858;43.076;25.626;2022-10-16T12:02:32;100161.91;;;16.94;48.66
11605;BME280;5858;43.076;25.626;2022-10-16T12:05:11;100173.13;;;16.97;48.64
11605;BME280;5858;43.076;25.626;2022-10-16T12:07:50;100235.09;;;17.53;48.00
11605;BME280;5858;43.076;25.626;2022-10-16T12:10:22;100255.50;;;17.62;46.86
11605;BME280;5858;43.076;25.626;2022-10-16T12:12:49;100314.53;;;18.07;47.92
11605;BME280;5858;43.076;25.626;2022-10-16T12:15:24;100222.81;;;17.64;47.76
11605;BME280;5858;43.076;25.626;2022-10-16T12:17:52;100285.75;;;17.92;48.00
11605;BME280;5858;43.076;25.626;2022-10-16T12:20:26;100176.56;;;17.39;48.64
11605;BME280;5858;43.076;25.626;2022-10-16T12:22:57;100240.34;;;17.75;47.83
11605;BME280;5858;43.076;25.626;2022-10-16T12:25:29;100166.56;;;17.33;46.47
11605;BME280;5858;43.076;25.626;2022-10-16T12:28:17;100236.97;;;17.53;47.32
11605;BME280;5858;43.076;25.626;2022-10-16T12:30:55;100334.53;;;18.06;47.74
11605;BME280;5858;43.076;25.626;2022-10-16T12:33:26;100256.53;;;17.55;47.84
11605;BME280;5858;43.076;25.626;2022-10-16T12:35:59;100315.91;;;17.63;47.95
11605;BME280;5858;43.076;25.626;2022-10-16T12:38:37;100202.72;;;17.06;48.01
11605;BME280;5858;43.076;25.626;2022-10-16T12:41:11;100232.91;;;17.16;47.30
11605;BME280;5858;43.076;25.626;2022-10-16T12:43:44;100164.34;;;16.69;47.45
11605;BME280;5858;43.076;25.626;2022-10-16T12:46:37;100326.72;;;17.56;47.17
11605;BME280;5858;43.076;25.626;2022-10-16T12:49:29;100308.59;;;17.50;47.30
11605;BME280;5858;43.076;25.626;2022-10-16T12:51:57;100293.97;;;17.45;47.26
11605;BME280;5858;43.076;25.626;2022-10-16T12:54:28;100301.47;;;17.49;46.90
11605;BME280;5858;43.076;25.626;2022-10-16T13:00:17;100325.66;;;17.57;46.67
11605;BME280;5858;43.076;25.626;2022-10-16T13:03:24;100316.97;;;17.69;47.35
11605;BME280;5858;43.076;25.626;2022-10-16T13:06:06;100276.06;;;17.44;46.69
11605;BME280;5858;43.076;25.626;2022-10-16T13:08:53;100228.13;;;17.18;46.86
11605;BME280;5858;43.076;25.626;2022-10-16T13:11:50;100172.28;;;16.90;46.23
11605;BME280;5858;43.076;25.626;2022-10-16T13:14:40;100277.16;;;17.56;46.90
11605;BME280;5858;43.076;25.626;2022-10-16T13:17:16;100273.22;;;17.65;46.00
11605;BME280;5858;43.076;25.626;2022-10-16T13:19:54;100331.84;;;18.06;45.97
11605;BME280;5858;43.076;25.626;2022-10-16T13:22:41;100306.41;;;18.00;47.71
11605;BME280;5858;43.076;25.626;2022-10-16T13:25:22;100293.50;;;18.02;47.28
11605;BME280;5858;43.076;25.626;2022-10-16T13:27:54;100336.00;;;18.28;47.84
11605;BME280;5858;43.076;25.626;2022-10-16T13:30:32;100211.94;;;17.44;45.18